Alberta, VA

3:35 AM EDT on October 02, 2014 (GMT -0400)
Mecklenburg-Brunswick Regional | Change Station
CLOSE
Current Station
Airport
Location: South Hill,
Elevation: 443 ft
Nearby Weather Stations

Elev 443 ft 36.69 °N, 78.05 °W | Updated 20 minutes ago

Overcast
Overcast
61 °F
Feels Like 61 °F
N
4
Wind Variable Wind from North

Today
High -- | Low -- °F
--% Chance of Precip.
Yesterday
High -- | Low -- °F
Precip. -- in
7:07 AM 6:53 PM
First Quarter, 56% visible
Pressure 29.99 in
Visibility 3.0 miles
Clouds Scattered Clouds 100 ft
Mostly Cloudy 1700 ft
Dew Point 61 °F
Humidity 100%
Rainfall 0.00 in
Snow Depth Not available.
UV 0 out of 12
Pollen 3.50 out of 12
Air Quality Not available.
Flu Activity Not available.
METAR KAVC 010715Z AUTO 35003KT 3SM BR SCT001 BKN017 16/16 A2999 RMK AO2

More Conditions Fewer Conditions

Pressure 29.99 in
Visibility 3.0 miles
Clouds Scattered Clouds 100 ft
Mostly Cloudy 1700 ft
Dew Point 61 °F
Humidity 100%
Rainfall 0.00 in
Snow Depth Not available.
UV 0 out of 12
Pollen 3.50 out of 12
Air Quality Not available.
Flu Activity Not available.
METAR KAVC 010715Z AUTO 35003KT 3SM BR SCT001 BKN017 16/16 A2999 RMK AO2

More Conditions Fewer Conditions

10-Day Weather Forecast

Almanac

Astronomy

Oct. 02, 2014 Rise Set
Actual Time 7:07 AM EDT 6:53 PM EDT
Civil Twilight 6:41 AM EDT 7:19 PM EDT
Nautical Twilight 6:11 AM EDT 7:49 PM EDT
Astronomical Twilight 5:41 AM EDT 8:19 PM EDT
Moon 2:50 PM EDT 12:30 AM EDT
Length of Visible Light 12h 37m
Length of Day
11h 45m
Tomorrow will be 2m 20s shorter.
First Quarter, 56% of the Moon is Illuminated
Today
First Quarter
Oct 8
Full
Oct 15
Last Quarter
Oct 23
New
Oct 30
First Quarter

Today's Extremes

State Highs State Lows

Community

WunderPhotos

Upload Photos

1,758,198 photos uploaded!

WunderBlogs® & News

By Dr. Jeff Masters
Director of Meteorology, Weather Underground
By Kari Strenfel
Meteorologist, Weather Underground
By Christopher C. Burt
Weather Historian, Weather Underground
October 2, 2014
October 2, 2014
October 2, 2014

Nearby

Snow Depth

Station Depth Elevation
No new snow has been reported.

Earthquake Activity

City Distance Mag. Time & Date
No recent earthquake activity has been reported nearby.
Minimum magnitude displayed is 2.5.

Coastal Water Temperatures

Place Temperature
No Stations Reporting

Nearby Weather Stations